sensor_id;sensor_type;location;lat;lon;timestamp;pressure;altitude;pressure_sealevel;temperature
13410;BMP180;6775;49.574;11.170;2024-03-23T00:56:13;96758.50;;;9.85
13410;BMP180;6775;49.574;11.170;2024-03-23T00:58:40;96751.50;;;9.68
13410;BMP180;6775;49.574;11.170;2024-03-23T01:01:07;96757.16;;;9.53
13410;BMP180;6775;49.574;11.170;2024-03-23T01:03:34;96748.19;;;9.38
13410;BMP180;6775;49.574;11.170;2024-03-23T01:06:01;96750.75;;;9.29
13410;BMP180;6775;49.574;11.170;2024-03-23T01:08:29;96740.50;;;9.38
13410;BMP180;6775;49.574;11.170;2024-03-23T01:10:59;96731.22;;;9.56
13410;BMP180;6775;49.574;11.170;2024-03-23T01:13:27;96732.31;;;9.72
13410;BMP180;6775;49.574;11.170;2024-03-23T01:15:55;96720.44;;;9.90
13410;BMP180;6775;49.574;11.170;2024-03-23T01:18:24;96714.22;;;9.83
13410;BMP180;6775;49.574;11.170;2024-03-23T01:20:52;96721.22;;;9.62
13410;BMP180;6775;49.574;11.170;2024-03-23T01:23:20;96733.09;;;9.45
13410;BMP180;6775;49.574;11.170;2024-03-23T01:25:52;96714.16;;;9.27
13410;BMP180;6775;49.574;11.170;2024-03-23T01:28:22;96719.81;;;9.21
13410;BMP180;6775;49.574;11.170;2024-03-23T01:30:48;96719.44;;;9.16
13410;BMP180;6775;49.574;11.170;2024-03-23T01:33:16;96714.44;;;9.14
13410;BMP180;6775;49.574;11.170;2024-03-23T01:35:42;96716.06;;;9.15
13410;BMP180;6775;49.574;11.170;2024-03-23T01:38:10;96717.13;;;9.13
13410;BMP180;6775;49.574;11.170;2024-03-23T01:40:36;96715.75;;;9.09
13410;BMP180;6775;49.574;11.170;2024-03-23T01:43:06;96703.34;;;9.04
13410;BMP180;6775;49.574;11.170;2024-03-23T01:45:35;96703.06;;;9.07
13410;BMP180;6775;49.574;11.170;2024-03-23T01:48:04;96692.69;;;9.09
13410;BMP180;6775;49.574;11.170;2024-03-23T01:50:31;96697.41;;;9.13
13410;BMP180;6775;49.574;11.170;2024-03-23T01:53:02;96695.03;;;9.21
13410;BMP180;6775;49.574;11.170;2024-03-23T01:55:29;96682.75;;;9.25
13410;BMP180;6775;49.574;11.170;2024-03-23T01:57:57;96679.63;;;9.31
13410;BMP180;6775;49.574;11.170;2024-03-23T02:00:24;96668.03;;;9.36
13410;BMP180;6775;49.574;11.170;2024-03-23T02:02:55;96672.75;;;9.41
13410;BMP180;6775;49.574;11.170;2024-03-23T02:05:22;96664.00;;;9.43
13410;BMP180;6775;49.574;11.170;2024-03-23T02:07:51;96669.41;;;9.40
13410;BMP180;6775;49.574;11.170;2024-03-23T02:10:17;96661.69;;;9.40
13410;BMP180;6775;49.574;11.170;2024-03-23T02:12:45;96660.06;;;9.39
13410;BMP180;6775;49.574;11.170;2024-03-23T02:15:12;96658.31;;;9.40
13410;BMP180;6775;49.574;11.170;2024-03-23T02:17:39;96653.72;;;9.34
13410;BMP180;6775;49.574;11.170;2024-03-23T02:20:08;96651.56;;;9.29
13410;BMP180;6775;49.574;11.170;2024-03-23T02:22:37;96640.09;;;9.24
13410;BMP180;6775;49.574;11.170;2024-03-23T02:25:06;96629.56;;;9.27
13410;BMP180;6775;49.574;11.170;2024-03-23T02:27:34;96633.78;;;9.37
13410;BMP180;6775;49.574;11.170;2024-03-23T02:30:02;96634.03;;;9.44
13410;BMP180;6775;49.574;11.170;2024-03-23T02:32:30;96622.41;;;9.40
13410;BMP180;6775;49.574;11.170;2024-03-23T02:34:56;96617.28;;;9.40
13410;BMP180;6775;49.574;11.170;2024-03-23T02:37:24;96607.84;;;9.40
13410;BMP180;6775;49.574;11.170;2024-03-23T02:39:50;96603.00;;;9.37
13410;BMP180;6775;49.574;11.170;2024-03-23T02:42:19;96602.59;;;9.42
13410;BMP180;6775;49.574;11.170;2024-03-23T02:44:46;96600.03;;;9.42
13410;BMP180;6775;49.574;11.170;2024-03-23T02:47:13;96592.06;;;9.45
13410;BMP180;6775;49.574;11.170;2024-03-23T02:49:40;96585.72;;;9.49
13410;BMP180;6775;49.574;11.170;2024-03-23T02:52:07;96592.06;;;9.54
13410;BMP180;6775;49.574;11.170;2024-03-23T02:54:34;96578.97;;;9.57
13410;BMP180;6775;49.574;11.170;2024-03-23T02:57:01;96582.72;;;9.62
13410;BMP180;6775;49.574;11.170;2024-03-23T02:59:29;96593.25;;;9.69
13410;BMP180;6775;49.574;11.170;2024-03-23T03:01:56;96581.34;;;9.77
13410;BMP180;6775;49.574;11.170;2024-03-23T03:04:23;96568.63;;;9.85
13410;BMP180;6775;49.574;11.170;2024-03-23T03:06:50;96567.94;;;9.93
13410;BMP180;6775;49.574;11.170;2024-03-23T03:09:17;96558.72;;;10.00
13410;BMP180;6775;49.574;11.170;2024-03-23T03:11:44;96553.75;;;9.98
13410;BMP180;6775;49.574;11.170;2024-03-23T03:14:11;96555.66;;;9.96
13410;BMP180;6775;49.574;11.170;2024-03-23T03:16:39;96535.38;;;9.93
13410;BMP180;6775;49.574;11.170;2024-03-23T03:19:06;96536.47;;;10.00
13410;BMP180;6775;49.574;11.170;2024-03-23T03:21:33;96540.09;;;10.07
13410;BMP180;6775;49.574;11.170;2024-03-23T03:24:00;96533.69;;;10.11
13410;BMP180;6775;49.574;11.170;2024-03-23T03:26:27;96538.56;;;10.14
13410;BMP180;6775;49.574;11.170;2024-03-23T03:28:54;96541.50;;;10.19
13410;BMP180;6775;49.574;11.170;2024-03-23T03:31:22;96522.81;;;10.26
13410;BMP180;6775;49.574;11.170;2024-03-23T03:33:50;96528.88;;;10.35
13410;BMP180;6775;49.574;11.170;2024-03-23T03:36:17;96522.78;;;10.36
13410;BMP180;6775;49.574;11.170;2024-03-23T03:38:44;96509.56;;;10.31
13410;BMP180;6775;49.574;11.170;2024-03-23T03:41:11;96502.00;;;10.29
13410;BMP180;6775;49.574;11.170;2024-03-23T03:43:38;96501.06;;;10.30
13410;BMP180;6775;49.574;11.170;2024-03-23T03:46:06;96499.97;;;10.33
13410;BMP180;6775;49.574;11.170;2024-03-23T03:48:34;96500.31;;;10.38
13410;BMP180;6775;49.574;11.170;2024-03-23T03:51:03;96496.53;;;10.42
13410;BMP180;6775;49.574;11.170;2024-03-23T03:53:30;96482.59;;;10.44
13410;BMP180;6775;49.574;11.170;2024-03-23T03:56:01;96473.47;;;10.50
13410;BMP180;6775;49.574;11.170;2024-03-23T03:58:28;96466.44;;;10.52
13410;BMP180;6775;49.574;11.170;2024-03-23T04:00:55;96453.31;;;10.55
13410;BMP180;6775;49.574;11.170;2024-03-23T04:03:22;96440.31;;;10.56
13410;BMP180;6775;49.574;11.170;2024-03-23T04:05:52;96427.47;;;10.56
13410;BMP180;6775;49.574;11.170;2024-03-23T04:08:21;96415.44;;;10.56
13410;BMP180;6775;49.574;11.170;2024-03-23T04:10:48;96410.59;;;10.54
13410;BMP180;6775;49.574;11.170;2024-03-23T04:13:15;96417.78;;;10.50
13410;BMP180;6775;49.574;11.170;2024-03-23T04:15:42;96416.97;;;10.50
13410;BMP180;6775;49.574;11.170;2024-03-23T04:18:09;96411.03;;;10.49
13410;BMP180;6775;49.574;11.170;2024-03-23T04:20:36;96416.16;;;10.49
13410;BMP180;6775;49.574;11.170;2024-03-23T04:23:03;96427.53;;;10.47
13410;BMP180;6775;49.574;11.170;2024-03-23T04:25:32;96428.13;;;10.41
13410;BMP180;6775;49.574;11.170;2024-03-23T04:27:59;96417.84;;;10.41
13410;BMP180;6775;49.574;11.170;2024-03-23T04:30:26;96407.72;;;10.39
13410;BMP180;6775;49.574;11.170;2024-03-23T04:32:55;96410.28;;;10.39
13410;BMP180;6775;49.574;11.170;2024-03-23T04:35:23;96411.13;;;10.40
13410;BMP180;6775;49.574;11.170;2024-03-23T04:37:51;96419.78;;;10.39
13410;BMP180;6775;49.574;11.170;2024-03-23T04:40:19;96414.09;;;10.35
13410;BMP180;6775;49.574;11.170;2024-03-23T04:42:48;96410.72;;;10.35
13410;BMP180;6775;49.574;11.170;2024-03-23T04:45:16;96407.38;;;10.34
13410;BMP180;6775;49.574;11.170;2024-03-23T04:47:44;96421.81;;;10.35
13410;BMP180;6775;49.574;11.170;2024-03-23T04:50:11;96420.34;;;10.33
13410;BMP180;6775;49.574;11.170;2024-03-23T04:52:38;96423.06;;;10.31
13410;BMP180;6775;49.574;11.170;2024-03-23T04:55:07;96421.94;;;10.34
13410;BMP180;6775;49.574;11.170;2024-03-23T04:57:34;96404.94;;;10.33
13410;BMP180;6775;49.574;11.170;2024-03-23T05:00:03;96383.06;;;10.29
13410;BMP180;6775;49.574;11.170;2024-03-23T05:02:46;96387.41;;;10.28
13410;BMP180;6775;49.574;11.170;2024-03-23T05:05:12;96384.03;;;10.28
13410;BMP180;6775;49.574;11.170;2024-03-23T05:07:40;96389.31;;;10.26
13410;BMP180;6775;49.574;11.170;2024-03-23T05:10:10;96404.72;;;10.26
13410;BMP180;6775;49.574;11.170;2024-03-23T05:12:39;96398.78;;;10.26
13410;BMP180;6775;49.574;11.170;2024-03-23T05:15:07;96400.41;;;10.27
13410;BMP180;6775;49.574;11.170;2024-03-23T05:17:35;96395.91;;;10.29
13410;BMP180;6775;49.574;11.170;2024-03-23T05:20:02;96389.25;;;10.36
13410;BMP180;6775;49.574;11.170;2024-03-23T05:22:30;96375.81;;;10.42
13410;BMP180;6775;49.574;11.170;2024-03-23T05:24:57;96380.22;;;10.49
13410;BMP180;6775;49.574;11.170;2024-03-23T05:27:24;96378.50;;;10.57
13410;BMP180;6775;49.574;11.170;2024-03-23T05:29:51;96369.28;;;10.64
13410;BMP180;6775;49.574;11.170;2024-03-23T05:32:19;96374.31;;;10.74
13410;BMP180;6775;49.574;11.170;2024-03-23T05:34:46;96370.47;;;10.78
13410;BMP180;6775;49.574;11.170;2024-03-23T05:37:16;96367.47;;;10.82
13410;BMP180;6775;49.574;11.170;2024-03-23T05:39:42;96370.72;;;10.84
13410;BMP180;6775;49.574;11.170;2024-03-23T05:42:10;96372.28;;;10.85
13410;BMP180;6775;49.574;11.170;2024-03-23T05:44:36;96368.13;;;10.84
13410;BMP180;6775;49.574;11.170;2024-03-23T05:47:05;96377.44;;;10.85
13410;BMP180;6775;49.574;11.170;2024-03-23T05:49:33;96375.84;;;10.84
13410;BMP180;6775;49.574;11.170;2024-03-23T05:52:00;96370.41;;;10.87
13410;BMP180;6775;49.574;11.170;2024-03-23T05:54:29;96375.09;;;10.92
13410;BMP180;6775;49.574;11.170;2024-03-23T05:56:57;96363.25;;;10.99
13410;BMP180;6775;49.574;11.170;2024-03-23T05:59:23;96367.78;;;11.05
13410;BMP180;6775;49.574;11.170;2024-03-23T06:01:51;96369.25;;;11.07
13410;BMP180;6775;49.574;11.170;2024-03-23T06:04:18;96363.97;;;11.08
13410;BMP180;6775;49.574;11.170;2024-03-23T06:06:47;96363.13;;;11.08
13410;BMP180;6775;49.574;11.170;2024-03-23T06:09:13;96363.13;;;11.08
13410;BMP180;6775;49.574;11.170;2024-03-23T06:11:41;96366.53;;;11.08
13410;BMP180;6775;49.574;11.170;2024-03-23T06:14:07;96359.91;;;11.06
13410;BMP180;6775;49.574;11.170;2024-03-23T06:16:34;96371.81;;;11.07
13410;BMP180;6775;49.574;11.170;2024-03-23T06:19:01;96362.50;;;11.06
13410;BMP180;6775;49.574;11.170;2024-03-23T06:21:30;96374.69;;;11.04
13410;BMP180;6775;49.574;11.170;2024-03-23T06:23:58;96377.28;;;11.04
13410;BMP180;6775;49.574;11.170;2024-03-23T06:26:25;96357.50;;;11.05
13410;BMP180;6775;49.574;11.170;2024-03-23T06:28:52;96348.31;;;11.02
13410;BMP180;6775;49.574;11.170;2024-03-23T06:31:20;96358.75;;;11.01
13410;BMP180;6775;49.574;11.170;2024-03-23T06:33:46;96369.19;;;10.99
13410;BMP180;6775;49.574;11.170;2024-03-23T06:36:13;96366.91;;;10.96
13410;BMP180;6775;49.574;11.170;2024-03-23T06:38:40;96366.91;;;10.96
13410;BMP180;6775;49.574;11.170;2024-03-23T06:41:09;96373.84;;;10.96
13410;BMP180;6775;49.574;11.170;2024-03-23T06:43:35;96374.78;;;10.95
13410;BMP180;6775;49.574;11.170;2024-03-23T06:46:03;96367.88;;;10.95
13410;BMP180;6775;49.574;11.170;2024-03-23T06:48:30;96362.44;;;10.98
13410;BMP180;6775;49.574;11.170;2024-03-23T06:50:58;96357.00;;;11.01
13410;BMP180;6775;49.574;11.170;2024-03-23T06:53:24;96349.16;;;11.03
13410;BMP180;6775;49.574;11.170;2024-03-23T06:55:53;96355.72;;;11.05
13410;BMP180;6775;49.574;11.170;2024-03-23T06:58:23;96358.97;;;11.07
13410;BMP180;6775;49.574;11.170;2024-03-23T07:00:51;96355.25;;;11.09
13410;BMP180;6775;49.574;11.170;2024-03-23T07:03:18;96361.56;;;11.15
13410;BMP180;6775;49.574;11.170;2024-03-23T07:05:45;96382.50;;;11.20
13410;BMP180;6775;49.574;11.170;2024-03-23T07:08:12;96373.50;;;11.24
13410;BMP180;6775;49.574;11.170;2024-03-23T07:10:44;96375.44;;;11.22
13410;BMP180;6775;49.574;11.170;2024-03-23T07:13:11;96380.59;;;11.22
13410;BMP180;6775;49.574;11.170;2024-03-23T07:15:40;96385.06;;;11.20
13410;BMP180;6775;49.574;11.170;2024-03-23T07:18:06;96389.69;;;11.16
13410;BMP180;6775;49.574;11.170;2024-03-23T07:20:34;96400.13;;;11.15
13410;BMP180;6775;49.574;11.170;2024-03-23T07:23:00;96386.94;;;11.10
13410;BMP180;6775;49.574;11.170;2024-03-23T07:25:28;96389.66;;;11.08
13410;BMP180;6775;49.574;11.170;2024-03-23T07:27:55;96397.69;;;11.06
13410;BMP180;6775;49.574;11.170;2024-03-23T07:30:22;96394.28;;;11.05
13410;BMP180;6775;49.574;11.170;2024-03-23T07:32:50;96397.16;;;11.02
13410;BMP180;6775;49.574;11.170;2024-03-23T07:35:18;96403.28;;;11.01
13410;BMP180;6775;49.574;11.170;2024-03-23T07:37:44;96400.03;;;10.99
13410;BMP180;6775;49.574;11.170;2024-03-23T07:40:13;96397.63;;;10.98
13410;BMP180;6775;49.574;11.170;2024-03-23T07:42:40;96420.25;;;10.94
13410;BMP180;6775;49.574;11.170;2024-03-23T07:45:08;96411.22;;;10.90
13410;BMP180;6775;49.574;11.170;2024-03-23T07:47:35;96422.44;;;10.89
13410;BMP180;6775;49.574;11.170;2024-03-23T07:50:06;96427.88;;;10.86
13410;BMP180;6775;49.574;11.170;2024-03-23T07:52:32;96447.50;;;10.87
13410;BMP180;6775;49.574;11.170;2024-03-23T07:55:00;96444.25;;;10.85
13410;BMP180;6775;49.574;11.170;2024-03-23T07:57:26;96439.13;;;10.85
13410;BMP180;6775;49.574;11.170;2024-03-23T07:59:54;96461.59;;;10.83
13410;BMP180;6775;49.574;11.170;2024-03-23T08:02:20;96461.59;;;10.83
13410;BMP180;6775;49.574;11.170;2024-03-23T08:04:48;96465.94;;;10.83
13410;BMP180;6775;49.574;11.170;2024-03-23T08:07:16;96470.25;;;10.82
13410;BMP180;6775;49.574;11.170;2024-03-23T08:09:44;96449.13;;;10.88
13410;BMP180;6775;49.574;11.170;2024-03-23T08:12:11;96471.22;;;10.81
13410;BMP180;6775;49.574;11.170;2024-03-23T08:14:38;96463.72;;;10.70
13410;BMP180;6775;49.574;11.170;2024-03-23T08:17:04;96473.91;;;10.62
13410;BMP180;6775;49.574;11.170;2024-03-23T08:19:32;96480.97;;;10.60
13410;BMP180;6775;49.574;11.170;2024-03-23T08:21:58;96488.03;;;10.58
13410;BMP180;6775;49.574;11.170;2024-03-23T08:24:27;96483.63;;;10.51
13410;BMP180;6775;49.574;11.170;2024-03-23T08:26:55;96499.16;;;10.50
13410;BMP180;6775;49.574;11.170;2024-03-23T08:29:22;96512.50;;;10.36
13410;BMP180;6775;49.574;11.170;2024-03-23T08:31:49;96524.63;;;10.16
13410;BMP180;6775;49.574;11.170;2024-03-23T08:34:16;96527.13;;;9.99
13410;BMP180;6775;49.574;11.170;2024-03-23T08:36:42;96561.84;;;9.94
13410;BMP180;6775;49.574;11.170;2024-03-23T08:39:10;96572.53;;;9.89
13410;BMP180;6775;49.574;11.170;2024-03-23T08:41:38;96576.69;;;10.00
13410;BMP180;6775;49.574;11.170;2024-03-23T08:44:05;96584.72;;;10.23
13410;BMP180;6775;49.574;11.170;2024-03-23T08:46:32;96579.75;;;10.49
13410;BMP180;6775;49.574;11.170;2024-03-23T08:48:59;96593.38;;;10.58
13410;BMP180;6775;49.574;11.170;2024-03-23T08:51:26;96592.16;;;10.53
13410;BMP180;6775;49.574;11.170;2024-03-23T08:53:53;96634.66;;;10.48
13410;BMP180;6775;49.574;11.170;2024-03-23T08:56:19;96627.50;;;10.42
13410;BMP180;6775;49.574;11.170;2024-03-23T08:58:48;96643.56;;;10.17
13410;BMP180;6775;49.574;11.170;2024-03-23T09:01:15;96651.81;;;10.02
13410;BMP180;6775;49.574;11.170;2024-03-23T09:03:42;96656.78;;;9.94
13410;BMP180;6775;49.574;11.170;2024-03-23T09:06:11;96658.59;;;9.74
13410;BMP180;6775;49.574;11.170;2024-03-23T09:08:39;96672.38;;;9.54
13410;BMP180;6775;49.574;11.170;2024-03-23T09:11:08;96688.03;;;9.52
13410;BMP180;6775;49.574;11.170;2024-03-23T09:13:37;96708.00;;;9.48
13410;BMP180;6775;49.574;11.170;2024-03-23T09:16:06;96704.22;;;9.43
13410;BMP180;6775;49.574;11.170;2024-03-23T09:18:36;96713.53;;;9.44
13410;BMP180;6775;49.574;11.170;2024-03-23T09:21:04;96724.03;;;9.41
13410;BMP180;6775;49.574;11.170;2024-03-23T09:23:37;96734.88;;;9.63
13410;BMP180;6775;49.574;11.170;2024-03-23T09:26:04;96729.75;;;9.91
13410;BMP180;6775;49.574;11.170;2024-03-23T09:28:33;96726.63;;;10.35
13410;BMP180;6775;49.574;11.170;2024-03-23T09:31:03;96728.16;;;11.00
13410;BMP180;6775;49.574;11.170;2024-03-23T09:33:31;96729.22;;;11.24
13410;BMP180;6775;49.574;11.170;2024-03-23T09:36:03;96735.53;;;11.57
13410;BMP180;6775;49.574;11.170;2024-03-23T09:38:30;96737.47;;;11.28
13410;BMP180;6775;49.574;11.170;2024-03-23T09:40:58;96731.78;;;11.07
13410;BMP180;6775;49.574;11.170;2024-03-23T09:43:25;96727.41;;;11.34
13410;BMP180;6775;49.574;11.170;2024-03-23T09:45:53;96716.66;;;12.00
13410;BMP180;6775;49.574;11.170;2024-03-23T09:48:20;96725.28;;;12.59
13410;BMP180;6775;49.574;11.170;2024-03-23T09:50:49;96745.66;;;12.95
13410;BMP180;6775;49.574;11.170;2024-03-23T09:53:15;96736.78;;;12.72
13410;BMP180;6775;49.574;11.170;2024-03-23T09:55:44;96749.69;;;12.47
13410;BMP180;6775;49.574;11.170;2024-03-23T09:58:14;96762.91;;;12.27
13410;BMP180;6775;49.574;11.170;2024-03-23T10:00:41;96758.31;;;11.96
13410;BMP180;6775;49.574;11.170;2024-03-23T10:03:08;96769.09;;;11.64
13410;BMP180;6775;49.574;11.170;2024-03-23T10:05:37;96768.53;;;11.17
13410;BMP180;6775;49.574;11.170;2024-03-23T10:08:18;96772.44;;;10.85
13410;BMP180;6775;49.574;11.170;2024-03-23T10:10:46;96799.03;;;10.48
13410;BMP180;6775;49.574;11.170;2024-03-23T10:13:25;96793.94;;;10.29
13410;BMP180;6775;49.574;11.170;2024-03-23T10:15:57;96806.34;;;10.24
13410;BMP180;6775;49.574;11.170;2024-03-23T10:18:25;96799.63;;;10.23
13410;BMP180;6775;49.574;11.170;2024-03-23T10:21:08;96791.78;;;10.24
13410;BMP180;6775;49.574;11.170;2024-03-23T10:23:37;96810.44;;;10.17
13410;BMP180;6775;49.574;11.170;2024-03-23T10:26:17;96819.88;;;10.26
13410;BMP180;6775;49.574;11.170;2024-03-23T10:28:55;96802.31;;;10.31
13410;BMP180;6775;49.574;11.170;2024-03-23T10:31:27;96798.81;;;10.13
13410;BMP180;6775;49.574;11.170;2024-03-23T10:33:54;96806.38;;;10.14
13410;BMP180;6775;49.574;11.170;2024-03-23T10:36:22;96811.50;;;10.24
13410;BMP180;6775;49.574;11.170;2024-03-23T10:38:52;96806.84;;;10.74
13410;BMP180;6775;49.574;11.170;2024-03-23T10:41:19;96806.13;;;11.18
13410;BMP180;6775;49.574;11.170;2024-03-23T10:43:49;96811.63;;;11.32
13410;BMP180;6775;49.574;11.170;2024-03-23T10:46:16;96823.84;;;11.21
13410;BMP180;6775;49.574;11.170;2024-03-23T10:48:44;96840.03;;;11.04
13410;BMP180;6775;49.574;11.170;2024-03-23T10:51:12;96832.78;;;10.90
13410;BMP180;6775;49.574;11.170;2024-03-23T10:53:41;96833.34;;;11.11
13410;BMP180;6775;49.574;11.170;2024-03-23T10:56:12;96820.47;;;11.30
13410;BMP180;6775;49.574;11.170;2024-03-23T10:58:44;96816.06;;;11.04
13410;BMP180;6775;49.574;11.170;2024-03-23T11:01:12;96834.13;;;10.75
13410;BMP180;6775;49.574;11.170;2024-03-23T11:03:45;96846.38;;;10.36
13410;BMP180;6775;49.574;11.170;2024-03-23T11:06:36;96866.78;;;10.18
13410;BMP180;6775;49.574;11.170;2024-03-23T11:09:04;96866.13;;;10.26
13410;BMP180;6775;49.574;11.170;2024-03-23T11:11:52;96856.78;;;10.15
13410;BMP180;6775;49.574;11.170;2024-03-23T11:14:22;96856.44;;;9.90
13410;BMP180;6775;49.574;11.170;2024-03-23T11:17:08;96849.16;;;9.86
13410;BMP180;6775;49.574;11.170;2024-03-23T11:19:37;96847.94;;;9.80
13410;BMP180;6775;49.574;11.170;2024-03-23T11:22:05;96852.22;;;9.70
13410;BMP180;6775;49.574;11.170;2024-03-23T11:24:34;96848.03;;;9.60
13410;BMP180;6775;49.574;11.170;2024-03-23T11:27:02;96856.31;;;9.92
13410;BMP180;6775;49.574;11.170;2024-03-23T11:29:30;96858.66;;;10.32
13410;BMP180;6775;49.574;11.170;2024-03-23T11:31:57;96847.13;;;10.74
13410;BMP180;6775;49.574;11.170;2024-03-23T11:34:25;96844.72;;;11.18
13410;BMP180;6775;49.574;11.170;2024-03-23T11:37:04;96836.00;;;12.08
13410;BMP180;6775;49.574;11.170;2024-03-23T11:39:32;96816.69;;;12.72
13410;BMP180;6775;49.574;11.170;2024-03-23T11:42:00;96824.03;;;13.02
13410;BMP180;6775;49.574;11.170;2024-03-23T11:44:28;96835.72;;;13.47
13410;BMP180;6775;49.574;11.170;2024-03-23T11:47:07;96839.84;;;13.73
13410;BMP180;6775;49.574;11.170;2024-03-23T11:49:35;96828.66;;;13.57
13410;BMP180;6775;49.574;11.170;2024-03-23T11:52:07;96836.06;;;13.19
13410;BMP180;6775;49.574;11.170;2024-03-23T11:54:34;96835.53;;;12.48
13410;BMP180;6775;49.574;11.170;2024-03-23T11:57:04;96854.16;;;11.90
13410;BMP180;6775;49.574;11.170;2024-03-23T11:59:35;96861.13;;;11.44
13410;BMP180;6775;49.574;11.170;2024-03-23T12:02:07;96865.84;;;11.12
13410;BMP180;6775;49.574;11.170;2024-03-23T12:04:34;96859.00;;;10.94
13410;BMP180;6775;49.574;11.170;2024-03-23T12:07:16;96853.28;;;11.00
13410;BMP180;6775;49.574;11.170;2024-03-23T12:09:45;96845.63;;;11.26
13410;BMP180;6775;49.574;11.170;2024-03-23T12:12:17;96851.66;;;11.98
13410;BMP180;6775;49.574;11.170;2024-03-23T12:15:00;96840.28;;;12.77
13410;BMP180;6775;49.574;11.170;2024-03-23T12:17:27;96844.50;;;13.29
13410;BMP180;6775;49.574;11.170;2024-03-23T12:19:54;96835.41;;;13.50
13410;BMP180;6775;49.574;11.170;2024-03-23T12:22:21;96846.97;;;13.79
13410;BMP180;6775;49.574;11.170;2024-03-23T12:24:49;96853.47;;;13.99
13410;BMP180;6775;49.574;11.170;2024-03-23T12:27:17;96832.97;;;13.98
13410;BMP180;6775;49.574;11.170;2024-03-23T12:29:45;96831.50;;;13.38
13410;BMP180;6775;49.574;11.170;2024-03-23T12:32:13;96840.88;;;12.71
13410;BMP180;6775;49.574;11.170;2024-03-23T12:34:42;96834.47;;;12.33
13410;BMP180;6775;49.574;11.170;2024-03-23T12:37:09;96829.13;;;12.52
13410;BMP180;6775;49.574;11.170;2024-03-23T12:39:36;96835.22;;;12.51
13410;BMP180;6775;49.574;11.170;2024-03-23T12:42:03;96820.81;;;12.40
13410;BMP180;6775;49.574;11.170;2024-03-23T12:44:32;96829.50;;;12.39
13410;BMP180;6775;49.574;11.170;2024-03-23T12:46:58;96814.63;;;12.51
13410;BMP180;6775;49.574;11.170;2024-03-23T12:49:26;96802.78;;;12.83
13410;BMP180;6775;49.574;11.170;2024-03-23T12:51:56;96814.47;;;13.28
13410;BMP180;6775;49.574;11.170;2024-03-23T12:54:25;96808.78;;;13.50
13410;BMP180;6775;49.574;11.170;2024-03-23T12:56:52;96806.44;;;13.64
13410;BMP180;6775;49.574;11.170;2024-03-23T12:59:19;96794.66;;;13.77
13410;BMP180;6775;49.574;11.170;2024-03-23T13:01:47;96792.19;;;14.09
13410;BMP180;6775;49.574;11.170;2024-03-23T13:04:14;96790.50;;;13.92
13410;BMP180;6775;49.574;11.170;2024-03-23T13:06:41;96804.28;;;13.52
13410;BMP180;6775;49.574;11.170;2024-03-23T13:09:08;96803.25;;;13.37
13410;BMP180;6775;49.574;11.170;2024-03-23T13:11:35;96801.31;;;13.39
13410;BMP180;6775;49.574;11.170;2024-03-23T13:14:02;96785.94;;;13.29
13410;BMP180;6775;49.574;11.170;2024-03-23T13:16:30;96787.00;;;13.52
13410;BMP180;6775;49.574;11.170;2024-03-23T13:18:59;96795.94;;;13.65
13410;BMP180;6775;49.574;11.170;2024-03-23T13:21:27;96803.31;;;13.19
13410;BMP180;6775;49.574;11.170;2024-03-23T13:23:54;96802.38;;;12.95
13410;BMP180;6775;49.574;11.170;2024-03-23T13:26:21;96805.81;;;12.78
13410;BMP180;6775;49.574;11.170;2024-03-23T13:28:48;96797.53;;;12.67
13410;BMP180;6775;49.574;11.170;2024-03-23T13:31:15;96793.06;;;12.77
13410;BMP180;6775;49.574;11.170;2024-03-23T13:33:42;96797.63;;;13.08
13410;BMP180;6775;49.574;11.170;2024-03-23T13:36:11;96791.00;;;13.47
13410;BMP180;6775;49.574;11.170;2024-03-23T13:38:39;96785.47;;;13.67
13410;BMP180;6775;49.574;11.170;2024-03-23T13:41:05;96793.72;;;13.86
13410;BMP180;6775;49.574;11.170;2024-03-23T13:43:34;96790.84;;;14.05
13410;BMP180;6775;49.574;11.170;2024-03-23T13:46:01;96781.84;;;14.09
13410;BMP180;6775;49.574;11.170;2024-03-23T13:48:28;96775.38;;;14.21
13410;BMP180;6775;49.574;11.170;2024-03-23T13:50:58;96782.03;;;14.31
13410;BMP180;6775;49.574;11.170;2024-03-23T13:53:27;96772.81;;;14.37
13410;BMP180;6775;49.574;11.170;2024-03-23T13:55:54;96774.44;;;14.14
13410;BMP180;6775;49.574;11.170;2024-03-23T13:58:22;96776.41;;;13.71
13410;BMP180;6775;49.574;11.170;2024-03-23T14:00:49;96767.41;;;13.34
13410;BMP180;6775;49.574;11.170;2024-03-23T14:03:17;96772.97;;;13.06
13410;BMP180;6775;49.574;11.170;2024-03-23T14:05:45;96771.94;;;12.73
13410;BMP180;6775;49.574;11.170;2024-03-23T14:08:13;96766.31;;;12.53
13410;BMP180;6775;49.574;11.170;2024-03-23T14:10:42;96776.38;;;12.38
13410;BMP180;6775;49.574;11.170;2024-03-23T14:13:10;96773.78;;;12.21
13410;BMP180;6775;49.574;11.170;2024-03-23T14:15:37;96766.97;;;12.12
13410;BMP180;6775;49.574;11.170;2024-03-23T14:18:05;96749.53;;;12.06
13410;BMP180;6775;49.574;11.170;2024-03-23T14:20:32;96748.81;;;11.96
13410;BMP180;6775;49.574;11.170;2024-03-23T14:23:00;96741.28;;;11.85
13410;BMP180;6775;49.574;11.170;2024-03-23T14:25:26;96751.97;;;11.73
13410;BMP180;6775;49.574;11.170;2024-03-23T14:27:56;96750.00;;;11.67
13410;BMP180;6775;49.574;11.170;2024-03-23T14:30:24;96759.38;;;11.58
13410;BMP180;6775;49.574;11.170;2024-03-23T14:32:51;96754.03;;;11.43
13410;BMP180;6775;49.574;11.170;2024-03-23T14:35:19;96752.56;;;11.40
13410;BMP180;6775;49.574;11.170;2024-03-23T14:37:45;96756.72;;;11.51
13410;BMP180;6775;49.574;11.170;2024-03-23T14:40:13;96745.94;;;11.64
13410;BMP180;6775;49.574;11.170;2024-03-23T14:42:39;96744.53;;;11.87
13410;BMP180;6775;49.574;11.170;2024-03-23T14:45:09;96737.97;;;12.27
13410;BMP180;6775;49.574;11.170;2024-03-23T14:47:37;96746.59;;;12.18
13410;BMP180;6775;49.574;11.170;2024-03-23T14:50:06;96739.88;;;12.25
13410;BMP180;6775;49.574;11.170;2024-03-23T14:52:34;96742.00;;;12.30
13410;BMP180;6775;49.574;11.170;2024-03-23T14:55:02;96749.84;;;12.46
13410;BMP180;6775;49.574;11.170;2024-03-23T14:57:29;96746.44;;;12.70
13410;BMP180;6775;49.574;11.170;2024-03-23T14:59:56;96734.03;;;12.66
13410;BMP180;6775;49.574;11.170;2024-03-23T15:02:24;96737.88;;;12.37
13410;BMP180;6775;49.574;11.170;2024-03-23T15:04:53;96742.78;;;11.88
13410;BMP180;6775;49.574;11.170;2024-03-23T15:07:20;96752.25;;;11.53
13410;BMP180;6775;49.574;11.170;2024-03-23T15:09:46;96748.16;;;11.33
13410;BMP180;6775;49.574;11.170;2024-03-23T15:12:14;96747.41;;;11.13